Str. Kaye Barker — WCF3012 — position and weather

sailwx.info

Track history (hours):
 
Tides and Currents Weather Stations Pressure Air Temp Water Temp Dewpoint Dewpoint Depression Visibility Wind Speed Wind Dir Waves Ship Positions

Str. Kaye Barker

Owner: THE INTERLAKE STEAMSHIP COMPANY, Middleburg Heights, OH. More information available from US FCC via Universal Licensing System and Coast Guard Vessel Documentation Center.

Last reported at 2018-Jun-25 19:00 UTC. Time now 2018-Jun-25 19:47 UTC.
Position N 45°18' W 083°24'.

Length 223 m; draft 7.9 m.

Type: Cargo ship. MMSI: 366904910.

Wind from 110 at 3 knots

Barometer 1025.5 mb
Air temperature 16.6 ° C
Water temperature 10.5 ° C

Date/timePositionNaut miles runAvg speedWind from/ knotsBaromVisibWave heightAir tempDewpointWater temp
2018-Jun-25 19:00N 45°18' W 083°24'0 0.0 110 / 31025.5 16.6 10.5
2018-Jun-25 18:00N 45°18' W 083°24'0 0.0 110 / 41025.9 15.0 11.4
2018-Jun-25 17:00N 45°18' W 083°24'1 5.6 120 / 61025.9 12.9 11.9
2018-Jun-25 16:50N 45°18' W 083°25'0 0.0
2018-Jun-25 16:19N 45°18' W 083°25'0 0.0
2018-Jun-25 16:00N 45°18' W 083°25'172.9
2018-Jun-25 16:00N 45°18' W 083°24'1 1.3 090 / 51025.9 13.1 11.8
2018-Jun-25 15:17N 45°18' W 083°25'1 3.3
2018-Jun-25 15:00N 45°18' W 083°24'1 8.1 070 / 91024.8 12.5 11.7
2018-Jun-25 14:53N 45°18' W 083°25'1 1.1
2018-Jun-25 14:00N 45°18' W 083°24'1 2.1 070 / 71024.8 12.8 11.5
2018-Jun-25 13:33N 45°18' W 083°25'0 0.0
2018-Jun-25 13:12N 45°18' W 083°25'1 4.4
2018-Jun-25 13:00N 45°18' W 083°24'1010.4 080 / 111024.8 12.6 11.4
2018-Jun-25 12:00N 45°12' W 083°12'1312.7 040 / 151023.8 11.7 10.6
2018-Jun-25 11:00N 45°00' W 083°06'1514.7 050 / 181022.1 11.7 9.2
2018-Jun-25 10:00N 44°48' W 082°54'1818.5 040 / 191020.8 12.1 9.2
2018-Jun-25 09:00N 44°30' W 082°48'1312.7 020 / 151019.8 12.3 9.5
2018-Jun-25 08:00N 44°18' W 082°42'1312.7 1019.410.8 11.9 9.3
2018-Jun-25 07:00N 44°06' W 082°36'1312.8 350 / 101019.1 11.7 9.4
2018-Jun-25 06:00N 43°54' W 082°30'1212.0 340 / 131018.8 12.1 10.0
2018-Jun-25 05:00N 43°42' W 082°30'1818.0 340 / 121018.1 12.5 11.7
2018-Jun-25 04:00N 43°24' W 082°30'1312.8 340 / 151017.1 13.6 12.5
2018-Jun-25 03:00N 43°12' W 082°24'1212.0 340 / 161017.1 13.8 13.0
2018-Jun-25 02:00N 43°00' W 082°24'7 7.4 350 / 161016.4 14.2 14.0
2018-Jun-25 01:00N 42°54' W 082°30'1212.0 350 / 121015.7 15.5 14.3
2018-Jun-25 00:00N 42°42' W 082°30'7 7.4 010 / 161015.4 16.9 14.2
2018-Jun-24 23:00N 42°36' W 082°36'1110.7 040 / 151014.0 19.5 13.9
2018-Jun-24 22:00N 42°30' W 082°48'1514.9 020 / 101014.2 19.7 16.3
2018-Jun-24 21:00N 42°18' W 083°00'4 4.4 030 / 111013.5 21.0 18.8
2018-Jun-24 20:00N 42°18' W 083°06'4 4.4 290 / 51013.1 22.5 22.4
2018-Jun-24 19:00N 42°18' W 083°12'0 0.0 310 / 51013.1 22.0 22.1
2018-Jun-24 18:00N 42°18' W 083°12'0 0.0 320 / 51011.8 21.5 22.6
2018-Jun-24 17:00N 42°18' W 083°12'0 0.0 320 / 81011.5 21.6 21.6
2018-Jun-24 16:00N 42°18' W 083°12'0 0.0 330 / 91011.1 22.4 21.7
2018-Jun-24 15:00N 42°18' W 083°12'0 0.0 310 / 101010.4 22.3 21.5
2018-Jun-24 14:00N 42°18' W 083°12'4 4.4 300 / 61010.1 21.4 21.1
2018-Jun-24 13:00N 42°18' W 083°06'0 0.0 230 / 61009.8 20.2 21.7
2018-Jun-24 12:00N 42°18' W 083°06'1110.7 260 / 51009.4 19.5 18.1
2018-Jun-24 11:00N 42°24' W 082°54'1110.7 270 / 101008.4 19.6 16.3
2018-Jun-24 10:00N 42°30' W 082°42'1110.7 030 / 31008.1 18.7 13.8
2018-Jun-24 09:00N 42°36' W 082°30'1212.0 280 / 31008.3 17.9 14.1
2018-Jun-24 08:00N 42°48' W 082°30'7 7.4 010 / 11007.9 18.2 14.1
2018-Jun-24 07:00N 42°54' W 082°24'1212.0 260 / 31007.9 18.1 14.1
2018-Jun-24 06:00N 43°06' W 082°24'1212.0 270 / 81007.6 17.1 13.0
2018-Jun-24 05:00N 43°18' W 082°24'1818.0 300 / 81007.6 16.1 11.5
2018-Jun-24 04:00N 43°36' W 082°24'1212.0 330 / 71007.6 14.7 11.3
2018-Jun-24 03:00N 43°48' W 082°24'1212.0 1007.9 13.9 10.2
2018-Jun-24 02:00N 44°00' W 082°24'1312.8 030 / 61007.6 12.9 9.2
2018-Jun-24 01:00N 44°12' W 082°30'1312.7 030 / 101007.2 12.2 7.8
2018-Jun-24 00:00N 44°24' W 082°36'5112.7 050 / 91007.2 5.4 13.3 9.0
2018-Jun-23 20:00N 45°12' W 083°00'1514.7 090 / 151006.6 10.2 5.7
2018-Jun-23 19:00N 45°24' W 083°12'1514.7 100 / 181006.6 1.1 11.8 5.9
2018-Jun-23 18:00N 45°36' W 083°24'2512.3 090 / 141006.9 11.8 6.3
2018-Jun-23 16:00N 45°54' W 083°48'7 7.3 120 / 71007.9 16.3 11.0
2018-Jun-23 15:00N 46°00' W 083°54'1514.6 080 / 111007.9 17.6 13.7
2018-Jun-23 14:00N 46°12' W 084°06'7 7.3 110 / 41008.3 17.4 10.7
2018-Jun-23 13:00N 46°18' W 084°12'7 7.3 1008.9 15.1 9.8
2018-Jun-23 12:00N 46°24' W 084°18'6 6.0 280 / 71008.9 14.5 10.2
2018-Jun-23 11:00N 46°30' W 084°18'4 4.1 100 / 11008.9 15.5 9.6
2018-Jun-23 10:00N 46°30' W 084°24'8 8.3 050 / 51008.8 14.0 10.1
2018-Jun-23 09:00N 46°30' W 084°36'1514.6 160 / 31008.8 14.8 11.2
2018-Jun-23 08:00N 46°42' W 084°48'1010.2 070 / 61009.1 15.5 8.0
2018-Jun-23 07:00N 46°48' W 085°00'1212.3 100 / 71009.8 16.3 8.0
2018-Jun-23 06:00N 46°48' W 085°18'1212.3 110 / 91010.2 14.4 4.9
2018-Jun-23 05:00N 46°48' W 085°36'720.3 110 / 41010.510.8 13.1 2.4
2018-Jun-23 04:38N 46°48' W 085°47'914.3
2018-Jun-23 04:00N 46°48' W 086°00'1212.3 110 / 61010.5 11.8 2.4
2018-Jun-23 03:00N 46°48' W 086°18'1413.7 090 / 111010.5 9.5 2.3
2018-Jun-23 02:00N 46°42' W 086°36'1212.3 080 / 151009.8 10.8 2.7
2018-Jun-23 01:00N 46°42' W 086°54'1413.7 080 / 111009.8 8.5 3.5
2018-Jun-23 00:00N 46°36' W 087°12'8 8.2 090 / 111010.2 11.6 7.4
2018-Jun-22 23:00N 46°36' W 087°24'0 0.0 090 / 11011.2 15.4 8.2
2018-Jun-22 22:00N 46°36' W 087°24'0 0.0 140 / 21011.5 14.7 9.1
2018-Jun-22 21:00N 46°36' W 087°24'0 0.0 010 / 11011.9 14.2 9.4
2018-Jun-22 20:00N 46°36' W 087°24'0 0.0 120 / 21011.9 13.4 9.4
2018-Jun-22 19:00N 46°36' W 087°24'0 0.0 110 / 21011.9 13.4 9.1
2018-Jun-22 18:00N 46°36' W 087°24'0 0.0 140 / 31012.2 14.4 9.1
2018-Jun-22 17:00N 46°36' W 087°24'0 0.0 140 / 11012.5 17.1 9.0
2018-Jun-22 16:00N 46°36' W 087°24'0 0.0 320 / 31012.9 15.7 9.0
2018-Jun-22 15:00N 46°36' W 087°24'0 0.0 130 / 31013.2 16.3 9.1
2018-Jun-22 14:00N 46°36' W 087°24'0 0.0 120 / 31013.9 14.3 9.0
2018-Jun-22 13:00N 46°36' W 087°24'0 0.0 110 / 21013.9 12.4 8.7
2018-Jun-22 12:00N 46°36' W 087°24'0 0.0 260 / 11013.9 16.5 8.6
2018-Jun-22 11:00N 46°36' W 087°24'0 0.0 190 / 11013.5 13.0 8.3
2018-Jun-22 10:00N 46°36' W 087°24'0 0.0 200 / 11013.2 10.1 8.1
2018-Jun-22 09:00N 46°36' W 087°24'0 0.0 180 / 11013.2 10.9 7.7
2018-Jun-22 08:00N 46°36' W 087°24'0 0.0 120 / 11013.2 10.7 7.6
2018-Jun-22 07:00N 46°36' W 087°24'0 0.0 160 / 11013.5 9.7 7.9
2018-Jun-22 06:00N 46°36' W 087°24'2 3.1 220 / 11013.5 9.6 8.7
2018-Jun-22 05:16N 46°34' W 087°22'313.3
2018-Jun-22 05:00N 46°35' W 087°17'199.6
2018-Jun-22 05:00N 46°36' W 087°18'814.7 150 / 41013.5 8.8 6.4
2018-Jun-22 04:25N 46°36' W 087°06'613.7
2018-Jun-22 04:00N 46°38' W 086°58'2177.3
2018-Jun-22 04:00N 46°36' W 087°00'918.0 340 / 41013.9 7.4 3.2
2018-Jun-22 03:30N 46°39' W 086°48'510.0
2018-Jun-22 03:00N 46°42' W 086°42'3231.1 040 / 41014.2 6.3 2.6
2018-Jun-22 02:59N 46°40' W 086°38'1413.8
2018-Jun-22 02:00N 46°42' W 086°18'1212.3 090 / 121013.5 6.7 3.1
2018-Jun-22 01:00N 46°42' W 086°00'1413.7 070 / 41013.5 9.1 7.0
2018-Jun-22 00:00N 46°48' W 085°42'1616.4 060 / 121013.2 7.7 2.6
2018-Jun-21 23:00N 46°48' W 085°18'1212.3 040 / 121013.5 10.7 7.3
2018-Jun-21 22:00N 46°48' W 085°00'1514.6 010 / 91013.2 11.7 9.9
2018-Jun-21 21:00N 46°36' W 084°48'1010.2 1013.5 13.9 11.4
2018-Jun-21 20:00N 46°30' W 084°36'8 8.3 130 / 41014.2 19.3 9.3
2018-Jun-21 19:00N 46°30' W 084°24'4 4.1 180 / 61014.2 19.8 8.5
2018-Jun-21 18:00N 46°30' W 084°18'7 7.3 160 / 121015.0 18.9 8.1
2018-Jun-21 17:00N 46°24' W 084°12'7 7.3 120 / 131015.0 17.6 9.0
2018-Jun-21 16:00N 46°18' W 084°06'1312.7 100 / 81015.7 16.4 10.3
2018-Jun-21 15:00N 46°06' W 084°00'1312.7 090 / 161015.4 13.9 12.7
2018-Jun-21 14:00N 45°54' W 083°54'1413.9 100 / 201014.7 13.0 11.8
2018-Jun-21 13:00N 45°48' W 084°12'616.3 090 / 161014.310.8 12.8 11.9
2018-Jun-21 12:37N 45°51' W 084°20'213.2
2018-Jun-21 12:30N 45°51' W 084°22'613.1
2018-Jun-21 12:00N 45°51' W 084°31'3174.4
2018-Jun-21 12:00N 45°48' W 084°30'714.7 090 / 241013.3 13.9 12.4
2018-Jun-21 11:30N 45°50' W 084°40'612.6
2018-Jun-21 11:00N 45°49' W 084°49'198.1
2018-Jun-21 11:00N 45°48' W 084°48'715.0 090 / 231012.7 14.9 12.8
2018-Jun-21 10:30N 45°49' W 084°58'612.8
2018-Jun-21 10:00N 45°50' W 085°07'2121.8
2018-Jun-21 10:00N 45°48' W 085°06'510.0 090 / 231011.6 15.2 12.5
2018-Jun-21 09:30N 45°44' W 085°10'713.3
2018-Jun-21 09:00N 45°39' W 085°16'3783.3
2018-Jun-21 09:00N 45°42' W 085°18'918.1 080 / 241011.0 15.2 12.9
2018-Jun-21 08:30N 45°34' W 085°22'713.5
2018-Jun-21 08:00N 45°28' W 085°27'3180.6
2018-Jun-21 08:00N 45°30' W 085°24'1020.0 050 / 141011.3 15.3 11.4
2018-Jun-21 07:30N 45°23' W 085°33'713.6
2018-Jun-21 07:00N 45°17' W 085°39'2134.4
2018-Jun-21 07:00N 45°18' W 085°36'917.9 050 / 141010.6 15.5 11.2
2018-Jun-21 06:30N 45°12' W 085°45'612.2
2018-Jun-21 06:00N 45°06' W 085°48'285.1 040 / 121011.0 15.5 12.9
2018-Jun-21 05:58N 45°06' W 085°51'613.7
2018-Jun-21 05:30N 45°01' W 085°56'713.6
2018-Jun-21 05:00N 45°00' W 086°06'34655.1 060 / 171011.3 16.9 13.6
2018-Jun-21 04:59N 44°58' W 086°05'1313.3
2018-Jun-21 04:00N 44°48' W 086°18'1312.7 010 / 21011.6 17.1 13.2
2018-Jun-21 03:00N 44°36' W 086°24'1312.7 340 / 61011.3 15.7 13.3
2018-Jun-21 02:00N 44°24' W 086°30'1312.7 330 / 151010.6 15.8 10.3
2018-Jun-21 01:00N 44°12' W 086°36'1818.0 300 / 81010.6 14.6 15.4
2018-Jun-21 00:00N 43°54' W 086°36'1212.0 340 / 91009.9 15.7 13.9
2018-Jun-20 23:00N 43°42' W 086°36'1312.8 350 / 111009.6 16.8 15.3
2018-Jun-20 22:00N 43°30' W 086°30'1312.8 340 / 131009.9 18.4 16.7
2018-Jun-20 21:00N 43°18' W 086°24'1312.8 330 / 121009.6 19.6 17.9
2018-Jun-20 20:00N 43°06' W 086°18'4 4.4 320 / 91010.6 19.4 18.9
2018-Jun-20 19:00N 43°06' W 086°12'0 0.0 120 / 41011.3 21.5 22.0
2018-Jun-20 18:00N 43°06' W 086°12'0 0.0 090 / 51011.6 21.1 21.8
2018-Jun-20 17:00N 43°06' W 086°12'0 0.0 090 / 91012.0 19.8 21.8
2018-Jun-20 16:00N 43°06' W 086°12'0 0.0 080 / 101012.3 19.0 21.9
2018-Jun-20 15:00N 43°06' W 086°12'0 0.0 120 / 131011.6 18.6 21.9
2018-Jun-20 14:00N 43°06' W 086°12'0 0.0 080 / 141011.6 18.2 21.9
2018-Jun-20 13:00N 43°06' W 086°12'4 4.4 080 / 81012.0 17.7 22.0
2018-Jun-20 12:00N 43°06' W 086°18'1312.8 070 / 201011.0 17.6 18.1
2018-Jun-20 11:00N 43°18' W 086°24'1312.8 080 / 181011.3 16.8 17.6
2018-Jun-20 10:00N 43°30' W 086°30'7 7.4 070 / 171011.6 16.7 15.8
2018-Jun-20 09:00N 43°36' W 086°36'1818.0 080 / 131012.3 18.2 14.3
2018-Jun-20 08:00N 43°54' W 086°36'1212.0 100 / 101012.7 17.3 13.3
2018-Jun-20 07:00N 44°06' W 086°36'1312.7 070 / 31013.3 17.2 14.6
2018-Jun-20 06:00N 44°18' W 086°30'1312.7 110 / 61013.7 17.6 11.1
2018-Jun-20 05:00N 44°30' W 086°24'1212.0 160 / 31013.3 18.2 11.8
2018-Jun-20 04:00N 44°42' W 086°24'1312.7 100 / 71013.310.8 16.9 11.1
2018-Jun-20 03:00N 44°54' W 086°18'1818.0 100 / 101014.0 15.6 11.1
2018-Jun-20 02:00N 45°12' W 086°18'2212.6 080 / 81014.3 16.3 9.6
2018-Jun-20 00:15N 45°33' W 086°09'313.1
2018-Jun-20 00:01N 45°36' W 086°08'1312.9
2018-Jun-19 23:00N 45°48' W 086°00'214.0 130 / 91014.7 19.0 10.6
2018-Jun-19 22:52N 45°49' W 085°58'513.2
2018-Jun-19 22:29N 45°53' W 085°54'1 1.5
2018-Jun-19 22:00N 45°54' W 085°54'6 6.0 120 / 71015.0 16.8 11.8
2018-Jun-19 21:00N 46°00' W 085°54'0 0.0 130 / 51015.7 17.0 10.5
2018-Jun-19 20:00N 46°00' W 085°54'0 0.0 140 / 91016.4 17.1 9.7
2018-Jun-19 19:00N 46°00' W 085°54'0 0.0 110 / 111017.1 18.3 9.5
2018-Jun-19 18:00N 46°00' W 085°54'0 0.0 120 / 101017.7 17.9 10.0
2018-Jun-19 17:00N 46°00' W 085°54'0 0.0 120 / 121017.7 18.0 9.7
2018-Jun-19 16:00N 46°00' W 085°54'213.8 100 / 121017.7 17.1 9.5
2018-Jun-19 15:50N 45°58' W 085°52'0 0.0
2018-Jun-19 15:31N 45°58' W 085°52'2 4.3
2018-Jun-19 15:00N 46°00' W 085°54'250.7 100 / 131018.1 18.3 9.3
2018-Jun-19 14:57N 45°58' W 085°52'0 0.1
2018-Jun-19 14:21N 45°58' W 085°52'2 6.1
2018-Jun-19 14:00N 46°00' W 085°54'244.0 100 / 121018.1 18.4 9.4
2018-Jun-19 13:57N 45°58' W 085°52'2 2.3
2018-Jun-19 13:00N 46°00' W 085°54'0 0.0 090 / 121017.7 17.7 9.3
2018-Jun-19 12:00N 46°00' W 085°54'2 5.1 080 / 101017.7 17.9 9.3
2018-Jun-19 11:34N 45°58' W 085°52'0 0.0
2018-Jun-19 11:31N 45°58' W 085°52'0 0.0
2018-Jun-19 11:00N 45°58' W 085°52'2186.4
2018-Jun-19 11:00N 46°00' W 085°54'2 5.0 070 / 121017.4 16.4 9.5
2018-Jun-19 10:31N 45°58' W 085°53'611.0
2018-Jun-19 10:00N 45°52' W 085°54'2147.1
2018-Jun-19 10:00N 45°54' W 085°54'817.0 050 / 121016.7 14.5 11.8
2018-Jun-19 09:30N 45°47' W 086°00'713.6
2018-Jun-19 09:00N 45°41' W 086°06'1110.6
2018-Jun-19 09:00N 45°42' W 086°06'715.1 030 / 131016.0 13.4 8.5
2018-Jun-19 08:31N 45°35' W 086°08'713.9
2018-Jun-19 08:00N 45°28' W 086°10'2347.0
2018-Jun-19 08:00N 45°30' W 086°12'918.0 350 / 101015.7 12.5 6.5
2018-Jun-19 07:30N 45°21' W 086°13'713.7
2018-Jun-19 07:00N 45°15' W 086°15'713.9
2018-Jun-19 06:30N 45°08' W 086°17'713.9
2018-Jun-19 06:00N 45°01' W 086°19'2613.0
2018-Jun-19 04:00N 44°36' W 086°30'1212.0 020 / 121015.4 15.2 11.5
2018-Jun-19 03:00N 44°24' W 086°30'1918.5 010 / 171014.3 14.2 8.5
2018-Jun-19 02:00N 44°06' W 086°36'1212.0 1014.0 13.9 12.7
2018-Jun-19 01:00N 43°54' W 086°36'1212.0 1013.7 15.6 12.1
2018-Jun-19 00:00N 43°42' W 086°36'1312.8 350 / 171012.3 15.2 13.0
2018-Jun-18 23:00N 43°30' W 086°30'1918.5 340 / 131012.3 17.7 15.6
2018-Jun-18 22:00N 43°12' W 086°24'4 4.4 300 / 91012.0 19.9 17.6
2018-Jun-18 21:00N 43°12' W 086°18'0 0.0 250 / 51011.6 22.9 20.4
2018-Jun-18 20:00N 43°12' W 086°18'0 0.0 280 / 61012.0 23.7 20.0
2018-Jun-18 19:00N 43°12' W 086°18'0 0.0 260 / 81013.0 24.3 19.2
2018-Jun-18 18:00N 43°12' W 086°18'0 0.0 240 / 51013.3 24.2 18.6
2018-Jun-18 17:00N 43°12' W 086°18'0 0.0 210 / 71013.3 23.5 18.3
2018-Jun-18 16:00N 43°12' W 086°18'0 0.0 220 / 81013.0 23.5 17.8
2018-Jun-18 15:00N 43°12' W 086°18'0 0.0 200 / 31014.0 21.8 18.0
2018-Jun-18 14:00N 43°12' W 086°18'7 7.4 230 / 101013.7 22.9 19.4
2018-Jun-18 13:00N 43°18' W 086°24'1312.8 150 / 61013.0 19.5 15.8
2018-Jun-18 12:00N 43°30' W 086°30'1312.8 170 / 31013.0 18.3 13.7
2018-Jun-18 11:00N 43°42' W 086°36'1212.0 160 / 141011.3 17.8 12.1
2018-Jun-18 10:00N 43°54' W 086°36'1212.0 220 / 141011.3 20.0 12.1
2018-Jun-18 09:00N 44°06' W 086°36'1312.7 210 / 181011.6 19.9 12.2
2018-Jun-18 08:00N 44°18' W 086°30'1312.7 190 / 141011.0 0.5 20.7 8.1
2018-Jun-18 07:00N 44°30' W 086°24'1212.0 180 / 171011.0 18.5 11.3
2018-Jun-18 06:00N 44°42' W 086°24'1312.7 160 / 181010.3 5.4 17.3 10.7
2018-Jun-18 05:00N 44°54' W 086°18'1212.0 140 / 171010.6 1.1 17.4 10.3
2018-Jun-18 04:00N 45°06' W 086°18'1312.7 090 / 61012.0 16.4 8.3
2018-Jun-18 03:00N 45°18' W 086°12'3115.6 320 / 101012.3 13.7 5.1
2018-Jun-18 01:00N 45°48' W 086°00'5 9.1 250 / 231009.610.8 18.5 9.8
2018-Jun-18 00:25N 45°52' W 085°55'2 5.2
2018-Jun-18 00:00N 45°54' W 085°54'6 6.0 160 / 31009.6 15.4 11.6
2018-Jun-17 23:00N 46°00' W 085°54'0 0.0 180 / 41009.9 14.6 13.0
2018-Jun-17 22:00N 46°00' W 085°54'0 0.0 160 / 41010.3 15.5 13.2
2018-Jun-17 21:00N 46°00' W 085°54'0 0.0 140 / 41011.0 15.1 13.1
2018-Jun-17 20:00N 46°00' W 085°54'0 0.0 190 / 71011.3 15.4 12.9
2018-Jun-17 19:00N 46°00' W 085°54'0 0.0 200 / 51011.3 15.3 12.7
2018-Jun-17 18:00N 46°00' W 085°54'0 0.0 180 / 51011.3 14.5 12.7
2018-Jun-17 17:00N 46°00' W 085°54'0 0.0 180 / 41011.3 14.5 12.4
2018-Jun-17 16:00N 46°00' W 085°54'0 0.0 160 / 41011.6 13.9 12.1
2018-Jun-17 15:00N 46°00' W 085°54'0 0.0 160 / 41012.3 15.1 11.9
2018-Jun-17 14:00N 46°00' W 085°54'0 0.0 170 / 21012.7 15.2 11.8
2018-Jun-17 13:00N 46°00' W 085°54'0 0.0 200 / 61012.3 14.2 11.8
2018-Jun-17 12:00N 46°00' W 085°54'0 0.0 220 / 61012.3 15.5 11.8
2018-Jun-17 11:00N 46°00' W 085°54'2 4.4 200 / 61011.6 15.3 11.8
2018-Jun-17 10:27N 45°58' W 085°53'4 8.6
2018-Jun-17 10:00N 45°54' W 085°54'319.7 290 / 91011.0 15.1 11.0
2018-Jun-17 09:51N 45°51' W 085°55'514.1
2018-Jun-17 09:30N 45°47' W 085°60'713.8
2018-Jun-17 09:00N 45°42' W 086°06'415.0 160 / 141011.0 13.6 8.0
2018-Jun-17 08:44N 45°39' W 086°08'1114.6
2018-Jun-17 08:00N 45°30' W 086°18'1312.7 170 / 131011.6 13.4 4.2
2018-Jun-17 07:00N 45°18' W 086°24'4213.9 170 / 191011.0 15.4 4.7
2018-Jun-17 04:00N 44°42' W 086°54'1514.7 140 / 161011.3 12.0 5.8
2018-Jun-17 03:00N 44°30' W 087°06'1514.7 160 / 141012.3 11.7 5.5
2018-Jun-17 02:00N 44°18' W 087°18'1312.7 150 / 121012.3 13.0 8.8
2018-Jun-17 01:00N 44°06' W 087°24'9 8.6 160 / 141012.0 16.9 12.0
2018-Jun-17 00:00N 44°06' W 087°36'4 4.3 160 / 61012.3 16.8 13.6
2018-Jun-16 23:00N 44°06' W 087°42'0 0.0 140 / 31012.3 20.1 14.6
2018-Jun-16 22:00N 44°06' W 087°42'0 0.0 160 / 81012.7 21.3 14.4
2018-Jun-16 21:00N 44°06' W 087°42'0 0.0 140 / 41013.0 19.8 13.9
2018-Jun-16 20:00N 44°06' W 087°42'0 0.0 140 / 31014.0 19.0 13.7
2018-Jun-16 19:00N 44°06' W 087°42'9 8.6 060 / 51015.0 20.4 13.5
2018-Jun-16 18:00N 44°06' W 087°30'1514.8 050 / 51015.7 19.9 11.1
2018-Jun-16 17:00N 44°18' W 087°18'1312.7 030 / 151015.4 15.4 7.1
2018-Jun-16 16:00N 44°30' W 087°12'1514.7 1015.0 2.2 11.6 4.8
2018-Jun-16 15:00N 44°42' W 087°00'1514.7 040 / 61014.0 10.8 5.3
2018-Jun-16 14:00N 44°54' W 086°48'4912.3 120 / 81014.0 12.1 5.8
2018-Jun-16 10:00N 45°36' W 086°12'624.1 150 / 51012.7 13.6 8.5
2018-Jun-16 09:44N 45°41' W 086°06'313.7
2018-Jun-16 09:30N 45°42' W 086°02'815.8
2018-Jun-16 09:00N 45°48' W 085°54'2798.0 330 / 91013.0 14.2 11.0
2018-Jun-16 08:59N 45°46' W 085°54'713.5
2018-Jun-16 08:30N 45°49' W 085°46'713.4
2018-Jun-16 08:01N 45°52' W 085°37'2118.0
2018-Jun-16 08:00N 45°54' W 085°36'611.5 350 / 71012.0 15.1 11.0
2018-Jun-16 07:30N 45°54' W 085°28'713.4
2018-Jun-16 07:01N 45°53' W 085°18'181.2
2018-Jun-16 07:00N 45°54' W 085°18'713.9 310 / 31012.7 16.1 12.2
2018-Jun-16 06:30N 45°52' W 085°09'713.6
2018-Jun-16 06:00N 45°51' W 084°59'3193.5
2018-Jun-16 06:00N 45°48' W 085°00'715.3 250 / 31012.3 17.0 11.4
2018-Jun-16 05:30N 45°50' W 084°50'713.5
2018-Jun-16 05:00N 45°48' W 084°40'191.8
2018-Jun-16 05:00N 45°48' W 084°42'816.3 140 / 81013.3 16.2 11.0
2018-Jun-16 04:30N 45°44' W 084°32'713.4
2018-Jun-16 04:00N 45°41' W 084°23'1109.3
2018-Jun-16 04:00N 45°42' W 084°24'1413.9 170 / 131014.0 19.9 10.4
2018-Jun-16 03:00N 45°36' W 084°06'613.3 160 / 81014.3 17.3 10.8
2018-Jun-16 02:31N 45°36' W 083°57'013.7
2018-Jun-16 02:31N 45°36' W 083°57'713.8
2018-Jun-16 02:00N 45°32' W 083°48'2202.1
2018-Jun-16 02:00N 45°30' W 083°48'612.6 140 / 141014.7 18.5 7.7
2018-Jun-16 01:30N 45°29' W 083°39'713.5
2018-Jun-16 01:01N 45°26' W 083°31'2139.1
2018-Jun-16 01:00N 45°24' W 083°30'510.7 150 / 131014.0 13.9 8.4
2018-Jun-16 00:30N 45°23' W 083°23'611.2
2018-Jun-16 00:00N 45°18' W 083°18'1514.7 180 / 131014.7 11.1 6.1
2018-Jun-15 23:00N 45°06' W 083°06'1312.7 150 / 71014.3 10.9 7.4
2018-Jun-15 22:00N 44°54' W 083°00'1312.7 230 / 91014.3 11.2 7.4
2018-Jun-15 21:00N 44°42' W 082°54'   160 / 71016.0 12.5 6.6
Track history (hours):
 
Tides and Currents Weather Stations Pressure Air Temp Water Temp Dewpoint Dewpoint Depression Visibility Wind Speed Wind Dir Waves Ship Positions

Str. Kaye Barker

Owner: THE INTERLAKE STEAMSHIP COMPANY, Middleburg Heights, OH. More information available from US FCC via Universal Licensing System and Coast Guard Vessel Documentation Center.

Last reported at 2018-Jun-25 19:00 UTC. Time now 2018-Jun-25 19:47 UTC.
Position N 45°18' W 083°24'.

Length 223 m; draft 7.9 m.

Type: Cargo ship. MMSI: 366904910.

Wind from 110 at 3 knots

Barometer 1025.5 mb
Air temperature 16.6 ° C
Water temperature 10.5 ° C

Date/timePositionNaut miles runAvg speedWind from/ knotsBaromVisibWave heightAir tempDewpointWater temp
2018-Jun-25 19:00N 45°18' W 083°24'0 0.0 110 / 31025.5 16.6 10.5
2018-Jun-25 18:00N 45°18' W 083°24'0 0.0 110 / 41025.9 15.0 11.4
2018-Jun-25 17:00N 45°18' W 083°24'1 5.6 120 / 61025.9 12.9 11.9
2018-Jun-25 16:50N 45°18' W 083°25'0 0.0
2018-Jun-25 16:19N 45°18' W 083°25'0 0.0
2018-Jun-25 16:00N 45°18' W 083°25'172.9
2018-Jun-25 16:00N 45°18' W 083°24'1 1.3 090 / 51025.9 13.1 11.8
2018-Jun-25 15:17N 45°18' W 083°25'1 3.3
2018-Jun-25 15:00N 45°18' W 083°24'1 8.1 070 / 91024.8 12.5 11.7
2018-Jun-25 14:53N 45°18' W 083°25'1 1.1
2018-Jun-25 14:00N 45°18' W 083°24'1 2.1 070 / 71024.8 12.8 11.5
2018-Jun-25 13:33N 45°18' W 083°25'0 0.0
2018-Jun-25 13:12N 45°18' W 083°25'1 4.4
2018-Jun-25 13:00N 45°18' W 083°24'1010.4 080 / 111024.8 12.6 11.4
2018-Jun-25 12:00N 45°12' W 083°12'1312.7 040 / 151023.8 11.7 10.6
2018-Jun-25 11:00N 45°00' W 083°06'1514.7 050 / 181022.1 11.7 9.2
2018-Jun-25 10:00N 44°48' W 082°54'1818.5 040 / 191020.8 12.1 9.2
2018-Jun-25 09:00N 44°30' W 082°48'1312.7 020 / 151019.8 12.3 9.5
2018-Jun-25 08:00N 44°18' W 082°42'1312.7 1019.410.8 11.9 9.3
2018-Jun-25 07:00N 44°06' W 082°36'1312.8 350 / 101019.1 11.7 9.4
2018-Jun-25 06:00N 43°54' W 082°30'1212.0 340 / 131018.8 12.1 10.0
2018-Jun-25 05:00N 43°42' W 082°30'1818.0 340 / 121018.1 12.5 11.7
2018-Jun-25 04:00N 43°24' W 082°30'1312.8 340 / 151017.1 13.6 12.5
2018-Jun-25 03:00N 43°12' W 082°24'1212.0 340 / 161017.1 13.8 13.0
2018-Jun-25 02:00N 43°00' W 082°24'7 7.4 350 / 161016.4 14.2 14.0
2018-Jun-25 01:00N 42°54' W 082°30'1212.0 350 / 121015.7 15.5 14.3
2018-Jun-25 00:00N 42°42' W 082°30'7 7.4 010 / 161015.4 16.9 14.2
2018-Jun-24 23:00N 42°36' W 082°36'1110.7 040 / 151014.0 19.5 13.9
2018-Jun-24 22:00N 42°30' W 082°48'1514.9 020 / 101014.2 19.7 16.3
2018-Jun-24 21:00N 42°18' W 083°00'4 4.4 030 / 111013.5 21.0 18.8
2018-Jun-24 20:00N 42°18' W 083°06'4 4.4 290 / 51013.1 22.5 22.4
2018-Jun-24 19:00N 42°18' W 083°12'0 0.0 310 / 51013.1 22.0 22.1
2018-Jun-24 18:00N 42°18' W 083°12'0 0.0 320 / 51011.8 21.5 22.6
2018-Jun-24 17:00N 42°18' W 083°12'0 0.0 320 / 81011.5 21.6 21.6
2018-Jun-24 16:00N 42°18' W 083°12'0 0.0 330 / 91011.1 22.4 21.7
2018-Jun-24 15:00N 42°18' W 083°12'0 0.0 310 / 101010.4 22.3 21.5
2018-Jun-24 14:00N 42°18' W 083°12'4 4.4 300 / 61010.1 21.4 21.1
2018-Jun-24 13:00N 42°18' W 083°06'0 0.0 230 / 61009.8 20.2 21.7
2018-Jun-24 12:00N 42°18' W 083°06'1110.7 260 / 51009.4 19.5 18.1
2018-Jun-24 11:00N 42°24' W 082°54'1110.7 270 / 101008.4 19.6 16.3
2018-Jun-24 10:00N 42°30' W 082°42'1110.7 030 / 31008.1 18.7 13.8
2018-Jun-24 09:00N 42°36' W 082°30'1212.0 280 / 31008.3 17.9 14.1
2018-Jun-24 08:00N 42°48' W 082°30'7 7.4 010 / 11007.9 18.2 14.1
2018-Jun-24 07:00N 42°54' W 082°24'1212.0 260 / 31007.9 18.1 14.1
2018-Jun-24 06:00N 43°06' W 082°24'1212.0 270 / 81007.6 17.1 13.0
2018-Jun-24 05:00N 43°18' W 082°24'1818.0 300 / 81007.6 16.1 11.5
2018-Jun-24 04:00N 43°36' W 082°24'1212.0 330 / 71007.6 14.7 11.3
2018-Jun-24 03:00N 43°48' W 082°24'1212.0 1007.9 13.9 10.2
2018-Jun-24 02:00N 44°00' W 082°24'1312.8 030 / 61007.6 12.9 9.2
2018-Jun-24 01:00N 44°12' W 082°30'1312.7 030 / 101007.2 12.2 7.8
2018-Jun-24 00:00N 44°24' W 082°36'5112.7 050 / 91007.2 5.4 13.3 9.0
2018-Jun-23 20:00N 45°12' W 083°00'1514.7 090 / 151006.6 10.2 5.7
2018-Jun-23 19:00N 45°24' W 083°12'1514.7 100 / 181006.6 1.1 11.8 5.9
2018-Jun-23 18:00N 45°36' W 083°24'2512.3 090 / 141006.9 11.8 6.3
2018-Jun-23 16:00N 45°54' W 083°48'7 7.3 120 / 71007.9 16.3 11.0
2018-Jun-23 15:00N 46°00' W 083°54'1514.6 080 / 111007.9 17.6 13.7
2018-Jun-23 14:00N 46°12' W 084°06'7 7.3 110 / 41008.3 17.4 10.7
2018-Jun-23 13:00N 46°18' W 084°12'7 7.3 1008.9 15.1 9.8
2018-Jun-23 12:00N 46°24' W 084°18'6 6.0 280 / 71008.9 14.5 10.2
2018-Jun-23 11:00N 46°30' W 084°18'4 4.1 100 / 11008.9 15.5 9.6
2018-Jun-23 10:00N 46°30' W 084°24'8 8.3 050 / 51008.8 14.0 10.1
2018-Jun-23 09:00N 46°30' W 084°36'1514.6 160 / 31008.8 14.8 11.2
2018-Jun-23 08:00N 46°42' W 084°48'1010.2 070 / 61009.1 15.5 8.0
2018-Jun-23 07:00N 46°48' W 085°00'1212.3 100 / 71009.8 16.3 8.0
2018-Jun-23 06:00N 46°48' W 085°18'1212.3 110 / 91010.2 14.4 4.9
2018-Jun-23 05:00N 46°48' W 085°36'720.3 110 / 41010.510.8 13.1 2.4
2018-Jun-23 04:38N 46°48' W 085°47'914.3
2018-Jun-23 04:00N 46°48' W 086°00'1212.3 110 / 61010.5 11.8 2.4
2018-Jun-23 03:00N 46°48' W 086°18'1413.7 090 / 111010.5 9.5 2.3
2018-Jun-23 02:00N 46°42' W 086°36'1212.3 080 / 151009.8 10.8 2.7
2018-Jun-23 01:00N 46°42' W 086°54'1413.7 080 / 111009.8 8.5 3.5
2018-Jun-23 00:00N 46°36' W 087°12'8 8.2 090 / 111010.2 11.6 7.4
2018-Jun-22 23:00N 46°36' W 087°24'0 0.0 090 / 11011.2 15.4 8.2
2018-Jun-22 22:00N 46°36' W 087°24'0 0.0 140 / 21011.5 14.7 9.1
2018-Jun-22 21:00N 46°36' W 087°24'0 0.0 010 / 11011.9 14.2 9.4
2018-Jun-22 20:00N 46°36' W 087°24'0 0.0 120 / 21011.9 13.4 9.4
2018-Jun-22 19:00N 46°36' W 087°24'0 0.0 110 / 21011.9 13.4 9.1
2018-Jun-22 18:00N 46°36' W 087°24'0 0.0 140 / 31012.2 14.4 9.1
2018-Jun-22 17:00N 46°36' W 087°24'0 0.0 140 / 11012.5 17.1 9.0
2018-Jun-22 16:00N 46°36' W 087°24'0 0.0 320 / 31012.9 15.7 9.0
2018-Jun-22 15:00N 46°36' W 087°24'0 0.0 130 / 31013.2 16.3 9.1
2018-Jun-22 14:00N 46°36' W 087°24'0 0.0 120 / 31013.9 14.3 9.0
2018-Jun-22 13:00N 46°36' W 087°24'0 0.0 110 / 21013.9 12.4 8.7
2018-Jun-22 12:00N 46°36' W 087°24'0 0.0 260 / 11013.9 16.5 8.6
2018-Jun-22 11:00N 46°36' W 087°24'0 0.0 190 / 11013.5 13.0 8.3
2018-Jun-22 10:00N 46°36' W 087°24'0 0.0 200 / 11013.2 10.1 8.1
2018-Jun-22 09:00N 46°36' W 087°24'0 0.0 180 / 11013.2 10.9 7.7
2018-Jun-22 08:00N 46°36' W 087°24'0 0.0 120 / 11013.2 10.7 7.6
2018-Jun-22 07:00N 46°36' W 087°24'0 0.0 160 / 11013.5 9.7 7.9
2018-Jun-22 06:00N 46°36' W 087°24'2 3.1 220 / 11013.5 9.6 8.7
2018-Jun-22 05:16N 46°34' W 087°22'313.3
2018-Jun-22 05:00N 46°35' W 087°17'199.6
2018-Jun-22 05:00N 46°36' W 087°18'814.7 150 / 41013.5 8.8 6.4
2018-Jun-22 04:25N 46°36' W 087°06'613.7
2018-Jun-22 04:00N 46°38' W 086°58'2177.3
2018-Jun-22 04:00N 46°36' W 087°00'918.0 340 / 41013.9 7.4 3.2
2018-Jun-22 03:30N 46°39' W 086°48'510.0
2018-Jun-22 03:00N 46°42' W 086°42'3231.1 040 / 41014.2 6.3 2.6
2018-Jun-22 02:59N 46°40' W 086°38'1413.8
2018-Jun-22 02:00N 46°42' W 086°18'1212.3 090 / 121013.5 6.7 3.1
2018-Jun-22 01:00N 46°42' W 086°00'1413.7 070 / 41013.5 9.1 7.0
2018-Jun-22 00:00N 46°48' W 085°42'1616.4 060 / 121013.2 7.7 2.6
2018-Jun-21 23:00N 46°48' W 085°18'1212.3 040 / 121013.5 10.7 7.3
2018-Jun-21 22:00N 46°48' W 085°00'1514.6 010 / 91013.2 11.7 9.9
2018-Jun-21 21:00N 46°36' W 084°48'1010.2 1013.5 13.9 11.4
2018-Jun-21 20:00N 46°30' W 084°36'8 8.3 130 / 41014.2 19.3 9.3
2018-Jun-21 19:00N 46°30' W 084°24'4 4.1 180 / 61014.2 19.8 8.5
2018-Jun-21 18:00N 46°30' W 084°18'7 7.3 160 / 121015.0 18.9 8.1
2018-Jun-21 17:00N 46°24' W 084°12'7 7.3 120 / 131015.0 17.6 9.0
2018-Jun-21 16:00N 46°18' W 084°06'1312.7 100 / 81015.7 16.4 10.3
2018-Jun-21 15:00N 46°06' W 084°00'1312.7 090 / 161015.4 13.9 12.7
2018-Jun-21 14:00N 45°54' W 083°54'1413.9 100 / 201014.7 13.0 11.8
2018-Jun-21 13:00N 45°48' W 084°12'616.3 090 / 161014.310.8 12.8 11.9
2018-Jun-21 12:37N 45°51' W 084°20'213.2
2018-Jun-21 12:30N 45°51' W 084°22'613.1
2018-Jun-21 12:00N 45°51' W 084°31'3174.4
2018-Jun-21 12:00N 45°48' W 084°30'714.7 090 / 241013.3 13.9 12.4
2018-Jun-21 11:30N 45°50' W 084°40'612.6
2018-Jun-21 11:00N 45°49' W 084°49'198.1
2018-Jun-21 11:00N 45°48' W 084°48'715.0 090 / 231012.7 14.9 12.8
2018-Jun-21 10:30N 45°49' W 084°58'612.8
2018-Jun-21 10:00N 45°50' W 085°07'2121.8
2018-Jun-21 10:00N 45°48' W 085°06'510.0 090 / 231011.6 15.2 12.5
2018-Jun-21 09:30N 45°44' W 085°10'713.3
2018-Jun-21 09:00N 45°39' W 085°16'3783.3
2018-Jun-21 09:00N 45°42' W 085°18'918.1 080 / 241011.0 15.2 12.9
2018-Jun-21 08:30N 45°34' W 085°22'713.5
2018-Jun-21 08:00N 45°28' W 085°27'3180.6
2018-Jun-21 08:00N 45°30' W 085°24'1020.0 050 / 141011.3 15.3 11.4
2018-Jun-21 07:30N 45°23' W 085°33'713.6
2018-Jun-21 07:00N 45°17' W 085°39'2134.4
2018-Jun-21 07:00N 45°18' W 085°36'917.9 050 / 141010.6 15.5 11.2
2018-Jun-21 06:30N 45°12' W 085°45'612.2
2018-Jun-21 06:00N 45°06' W 085°48'285.1 040 / 121011.0 15.5 12.9
2018-Jun-21 05:58N 45°06' W 085°51'613.7
2018-Jun-21 05:30N 45°01' W 085°56'713.6
2018-Jun-21 05:00N 45°00' W 086°06'34655.1 060 / 171011.3 16.9 13.6
2018-Jun-21 04:59N 44°58' W 086°05'1313.3
2018-Jun-21 04:00N 44°48' W 086°18'1312.7 010 / 21011.6 17.1 13.2
2018-Jun-21 03:00N 44°36' W 086°24'1312.7 340 / 61011.3 15.7 13.3
2018-Jun-21 02:00N 44°24' W 086°30'1312.7 330 / 151010.6 15.8 10.3
2018-Jun-21 01:00N 44°12' W 086°36'1818.0 300 / 81010.6 14.6 15.4
2018-Jun-21 00:00N 43°54' W 086°36'1212.0 340 / 91009.9 15.7 13.9
2018-Jun-20 23:00N 43°42' W 086°36'1312.8 350 / 111009.6 16.8 15.3
2018-Jun-20 22:00N 43°30' W 086°30'1312.8 340 / 131009.9 18.4 16.7
2018-Jun-20 21:00N 43°18' W 086°24'1312.8 330 / 121009.6 19.6 17.9
2018-Jun-20 20:00N 43°06' W 086°18'4 4.4 320 / 91010.6 19.4 18.9
2018-Jun-20 19:00N 43°06' W 086°12'0 0.0 120 / 41011.3 21.5 22.0
2018-Jun-20 18:00N 43°06' W 086°12'0 0.0 090 / 51011.6 21.1 21.8
2018-Jun-20 17:00N 43°06' W 086°12'0 0.0 090 / 91012.0 19.8 21.8
2018-Jun-20 16:00N 43°06' W 086°12'0 0.0 080 / 101012.3 19.0 21.9
2018-Jun-20 15:00N 43°06' W 086°12'0 0.0 120 / 131011.6 18.6 21.9
2018-Jun-20 14:00N 43°06' W 086°12'0 0.0 080 / 141011.6 18.2 21.9
2018-Jun-20 13:00N 43°06' W 086°12'4 4.4 080 / 81012.0 17.7 22.0
2018-Jun-20 12:00N 43°06' W 086°18'1312.8 070 / 201011.0 17.6 18.1
2018-Jun-20 11:00N 43°18' W 086°24'1312.8 080 / 181011.3 16.8 17.6
2018-Jun-20 10:00N 43°30' W 086°30'7 7.4 070 / 171011.6 16.7 15.8
2018-Jun-20 09:00N 43°36' W 086°36'1818.0 080 / 131012.3 18.2 14.3
2018-Jun-20 08:00N 43°54' W 086°36'1212.0 100 / 101012.7 17.3 13.3
2018-Jun-20 07:00N 44°06' W 086°36'1312.7 070 / 31013.3 17.2 14.6
2018-Jun-20 06:00N 44°18' W 086°30'1312.7 110 / 61013.7 17.6 11.1
2018-Jun-20 05:00N 44°30' W 086°24'1212.0 160 / 31013.3 18.2 11.8
2018-Jun-20 04:00N 44°42' W 086°24'1312.7 100 / 71013.310.8 16.9 11.1
2018-Jun-20 03:00N 44°54' W 086°18'1818.0 100 / 101014.0 15.6 11.1
2018-Jun-20 02:00N 45°12' W 086°18'2212.6 080 / 81014.3 16.3 9.6
2018-Jun-20 00:15N 45°33' W 086°09'313.1
2018-Jun-20 00:01N 45°36' W 086°08'1312.9
2018-Jun-19 23:00N 45°48' W 086°00'214.0 130 / 91014.7 19.0 10.6
2018-Jun-19 22:52N 45°49' W 085°58'513.2
2018-Jun-19 22:29N 45°53' W 085°54'1 1.5
2018-Jun-19 22:00N 45°54' W 085°54'6 6.0 120 / 71015.0 16.8 11.8
2018-Jun-19 21:00N 46°00' W 085°54'0 0.0 130 / 51015.7 17.0 10.5
2018-Jun-19 20:00N 46°00' W 085°54'0 0.0 140 / 91016.4 17.1 9.7
2018-Jun-19 19:00N 46°00' W 085°54'0 0.0 110 / 111017.1 18.3 9.5
2018-Jun-19 18:00N 46°00' W 085°54'0 0.0 120 / 101017.7 17.9 10.0
2018-Jun-19 17:00N 46°00' W 085°54'0 0.0 120 / 121017.7 18.0 9.7
2018-Jun-19 16:00N 46°00' W 085°54'213.8 100 / 121017.7 17.1 9.5
2018-Jun-19 15:50N 45°58' W 085°52'0 0.0
2018-Jun-19 15:31N 45°58' W 085°52'2 4.3
2018-Jun-19 15:00N 46°00' W 085°54'250.7 100 / 131018.1 18.3 9.3
2018-Jun-19 14:57N 45°58' W 085°52'0 0.1
2018-Jun-19 14:21N 45°58' W 085°52'2 6.1
2018-Jun-19 14:00N 46°00' W 085°54'244.0 100 / 121018.1 18.4 9.4
2018-Jun-19 13:57N 45°58' W 085°52'2 2.3
2018-Jun-19 13:00N 46°00' W 085°54'0 0.0 090 / 121017.7 17.7 9.3
2018-Jun-19 12:00N 46°00' W 085°54'2 5.1 080 / 101017.7 17.9 9.3
2018-Jun-19 11:34N 45°58' W 085°52'0 0.0
2018-Jun-19 11:31N 45°58' W 085°52'0 0.0
2018-Jun-19 11:00N 45°58' W 085°52'2186.4
2018-Jun-19 11:00N 46°00' W 085°54'2 5.0 070 / 121017.4 16.4 9.5
2018-Jun-19 10:31N 45°58' W 085°53'611.0
2018-Jun-19 10:00N 45°52' W 085°54'2147.1
2018-Jun-19 10:00N 45°54' W 085°54'817.0 050 / 121016.7 14.5 11.8
2018-Jun-19 09:30N 45°47' W 086°00'713.6
2018-Jun-19 09:00N 45°41' W 086°06'1110.6
2018-Jun-19 09:00N 45°42' W 086°06'715.1 030 / 131016.0 13.4 8.5
2018-Jun-19 08:31N 45°35' W 086°08'713.9
2018-Jun-19 08:00N 45°28' W 086°10'2347.0
2018-Jun-19 08:00N 45°30' W 086°12'918.0 350 / 101015.7 12.5 6.5
2018-Jun-19 07:30N 45°21' W 086°13'713.7
2018-Jun-19 07:00N 45°15' W 086°15'713.9
2018-Jun-19 06:30N 45°08' W 086°17'713.9
2018-Jun-19 06:00N 45°01' W 086°19'2613.0
2018-Jun-19 04:00N 44°36' W 086°30'1212.0 020 / 121015.4 15.2 11.5
2018-Jun-19 03:00N 44°24' W 086°30'1918.5 010 / 171014.3 14.2 8.5
2018-Jun-19 02:00N 44°06' W 086°36'1212.0 1014.0 13.9 12.7
2018-Jun-19 01:00N 43°54' W 086°36'1212.0 1013.7 15.6 12.1
2018-Jun-19 00:00N 43°42' W 086°36'1312.8 350 / 171012.3 15.2 13.0
2018-Jun-18 23:00N 43°30' W 086°30'1918.5 340 / 131012.3 17.7 15.6
2018-Jun-18 22:00N 43°12' W 086°24'4 4.4 300 / 91012.0 19.9 17.6
2018-Jun-18 21:00N 43°12' W 086°18'0 0.0 250 / 51011.6 22.9 20.4
2018-Jun-18 20:00N 43°12' W 086°18'0 0.0 280 / 61012.0 23.7 20.0
2018-Jun-18 19:00N 43°12' W 086°18'0 0.0 260 / 81013.0 24.3 19.2
2018-Jun-18 18:00N 43°12' W 086°18'0 0.0 240 / 51013.3 24.2 18.6
2018-Jun-18 17:00N 43°12' W 086°18'0 0.0 210 / 71013.3 23.5 18.3
2018-Jun-18 16:00N 43°12' W 086°18'0 0.0 220 / 81013.0 23.5 17.8
2018-Jun-18 15:00N 43°12' W 086°18'0 0.0 200 / 31014.0 21.8 18.0
2018-Jun-18 14:00N 43°12' W 086°18'7 7.4 230 / 101013.7 22.9 19.4
2018-Jun-18 13:00N 43°18' W 086°24'1312.8 150 / 61013.0 19.5 15.8
2018-Jun-18 12:00N 43°30' W 086°30'1312.8 170 / 31013.0 18.3 13.7
2018-Jun-18 11:00N 43°42' W 086°36'1212.0 160 / 141011.3 17.8 12.1
2018-Jun-18 10:00N 43°54' W 086°36'1212.0 220 / 141011.3 20.0 12.1
2018-Jun-18 09:00N 44°06' W 086°36'1312.7 210 / 181011.6 19.9 12.2
2018-Jun-18 08:00N 44°18' W 086°30'1312.7 190 / 141011.0 0.5 20.7 8.1
2018-Jun-18 07:00N 44°30' W 086°24'1212.0 180 / 171011.0 18.5 11.3
2018-Jun-18 06:00N 44°42' W 086°24'1312.7 160 / 181010.3 5.4 17.3 10.7
2018-Jun-18 05:00N 44°54' W 086°18'1212.0 140 / 171010.6 1.1 17.4 10.3
2018-Jun-18 04:00N 45°06' W 086°18'1312.7 090 / 61012.0 16.4 8.3
2018-Jun-18 03:00N 45°18' W 086°12'3115.6 320 / 101012.3 13.7 5.1
2018-Jun-18 01:00N 45°48' W 086°00'5 9.1 250 / 231009.610.8 18.5 9.8
2018-Jun-18 00:25N 45°52' W 085°55'2 5.2
2018-Jun-18 00:00N 45°54' W 085°54'6 6.0 160 / 31009.6 15.4 11.6
2018-Jun-17 23:00N 46°00' W 085°54'0 0.0 180 / 41009.9 14.6 13.0
2018-Jun-17 22:00N 46°00' W 085°54'0 0.0 160 / 41010.3 15.5 13.2
2018-Jun-17 21:00N 46°00' W 085°54'0 0.0 140 / 41011.0 15.1 13.1
2018-Jun-17 20:00N 46°00' W 085°54'0 0.0 190 / 71011.3 15.4 12.9
2018-Jun-17 19:00N 46°00' W 085°54'0 0.0 200 / 51011.3 15.3 12.7
2018-Jun-17 18:00N 46°00' W 085°54'0 0.0 180 / 51011.3 14.5 12.7
2018-Jun-17 17:00N 46°00' W 085°54'0 0.0 180 / 41011.3 14.5 12.4
2018-Jun-17 16:00N 46°00' W 085°54'0 0.0 160 / 41011.6 13.9 12.1
2018-Jun-17 15:00N 46°00' W 085°54'0 0.0 160 / 41012.3 15.1 11.9
2018-Jun-17 14:00N 46°00' W 085°54'0 0.0 170 / 21012.7 15.2 11.8
2018-Jun-17 13:00N 46°00' W 085°54'0 0.0 200 / 61012.3 14.2 11.8
2018-Jun-17 12:00N 46°00' W 085°54'0 0.0 220 / 61012.3 15.5 11.8
2018-Jun-17 11:00N 46°00' W 085°54'2 4.4 200 / 61011.6 15.3 11.8
2018-Jun-17 10:27N 45°58' W 085°53'4 8.6
2018-Jun-17 10:00N 45°54' W 085°54'319.7 290 / 91011.0 15.1 11.0
2018-Jun-17 09:51N 45°51' W 085°55'514.1
2018-Jun-17 09:30N 45°47' W 085°60'713.8
2018-Jun-17 09:00N 45°42' W 086°06'415.0 160 / 141011.0 13.6 8.0
2018-Jun-17 08:44N 45°39' W 086°08'1114.6
2018-Jun-17 08:00N 45°30' W 086°18'1312.7 170 / 131011.6 13.4 4.2
2018-Jun-17 07:00N 45°18' W 086°24'4213.9 170 / 191011.0 15.4 4.7
2018-Jun-17 04:00N 44°42' W 086°54'1514.7 140 / 161011.3 12.0 5.8
2018-Jun-17 03:00N 44°30' W 087°06'1514.7 160 / 141012.3 11.7 5.5
2018-Jun-17 02:00N 44°18' W 087°18'1312.7 150 / 121012.3 13.0 8.8
2018-Jun-17 01:00N 44°06' W 087°24'9 8.6 160 / 141012.0 16.9 12.0
2018-Jun-17 00:00N 44°06' W 087°36'4 4.3 160 / 61012.3 16.8 13.6
2018-Jun-16 23:00N 44°06' W 087°42'0 0.0 140 / 31012.3 20.1 14.6
2018-Jun-16 22:00N 44°06' W 087°42'0 0.0 160 / 81012.7 21.3 14.4
2018-Jun-16 21:00N 44°06' W 087°42'0 0.0 140 / 41013.0 19.8 13.9
2018-Jun-16 20:00N 44°06' W 087°42'0 0.0 140 / 31014.0 19.0 13.7
2018-Jun-16 19:00N 44°06' W 087°42'9 8.6 060 / 51015.0 20.4 13.5
2018-Jun-16 18:00N 44°06' W 087°30'1514.8 050 / 51015.7 19.9 11.1
2018-Jun-16 17:00N 44°18' W 087°18'1312.7 030 / 151015.4 15.4 7.1
2018-Jun-16 16:00N 44°30' W 087°12'1514.7 1015.0 2.2 11.6 4.8
2018-Jun-16 15:00N 44°42' W 087°00'1514.7 040 / 61014.0 10.8 5.3
2018-Jun-16 14:00N 44°54' W 086°48'4912.3 120 / 81014.0 12.1 5.8
2018-Jun-16 10:00N 45°36' W 086°12'624.1 150 / 51012.7 13.6 8.5
2018-Jun-16 09:44N 45°41' W 086°06'313.7
2018-Jun-16 09:30N 45°42' W 086°02'815.8
2018-Jun-16 09:00N 45°48' W 085°54'2798.0 330 / 91013.0 14.2 11.0
2018-Jun-16 08:59N 45°46' W 085°54'713.5
2018-Jun-16 08:30N 45°49' W 085°46'713.4
2018-Jun-16 08:01N 45°52' W 085°37'2118.0
2018-Jun-16 08:00N 45°54' W 085°36'611.5 350 / 71012.0 15.1 11.0
2018-Jun-16 07:30N 45°54' W 085°28'713.4
2018-Jun-16 07:01N 45°53' W 085°18'181.2
2018-Jun-16 07:00N 45°54' W 085°18'713.9 310 / 31012.7 16.1 12.2
2018-Jun-16 06:30N 45°52' W 085°09'713.6
2018-Jun-16 06:00N 45°51' W 084°59'3193.5
2018-Jun-16 06:00N 45°48' W 085°00'715.3 250 / 31012.3 17.0 11.4
2018-Jun-16 05:30N 45°50' W 084°50'713.5
2018-Jun-16 05:00N 45°48' W 084°40'191.8
2018-Jun-16 05:00N 45°48' W 084°42'816.3 140 / 81013.3 16.2 11.0
2018-Jun-16 04:30N 45°44' W 084°32'713.4
2018-Jun-16 04:00N 45°41' W 084°23'1109.3
2018-Jun-16 04:00N 45°42' W 084°24'1413.9 170 / 131014.0 19.9 10.4
2018-Jun-16 03:00N 45°36' W 084°06'613.3 160 / 81014.3 17.3 10.8
2018-Jun-16 02:31N 45°36' W 083°57'013.7
2018-Jun-16 02:31N 45°36' W 083°57'713.8
2018-Jun-16 02:00N 45°32' W 083°48'2202.1
2018-Jun-16 02:00N 45°30' W 083°48'612.6 140 / 141014.7 18.5 7.7
2018-Jun-16 01:30N 45°29' W 083°39'713.5
2018-Jun-16 01:01N 45°26' W 083°31'2139.1
2018-Jun-16 01:00N 45°24' W 083°30'510.7 150 / 131014.0 13.9 8.4
2018-Jun-16 00:30N 45°23' W 083°23'611.2
2018-Jun-16 00:00N 45°18' W 083°18'1514.7 180 / 131014.7 11.1 6.1
2018-Jun-15 23:00N 45°06' W 083°06'1312.7 150 / 71014.3 10.9 7.4
2018-Jun-15 22:00N 44°54' W 083°00'1312.7 230 / 91014.3 11.2 7.4
2018-Jun-15 21:00N 44°42' W 082°54'   160 / 71016.0 12.5 6.6

Dump ship's entire track history